sensor_id;sensor_type;location;lat;lon;timestamp;temperature;humidity
814;DHT22;389;48.710;9.392;2023-03-13T00:02:00;6.80;99.40
814;DHT22;389;48.710;9.392;2023-03-13T00:04:26;6.80;99.40
814;DHT22;389;48.710;9.392;2023-03-13T00:06:51;6.80;99.50
814;DHT22;389;48.710;9.392;2023-03-13T00:09:17;6.90;99.50
814;DHT22;389;48.710;9.392;2023-03-13T00:11:44;6.90;99.50
814;DHT22;389;48.710;9.392;2023-03-13T00:14:10;6.80;99.60
814;DHT22;389;48.710;9.392;2023-03-13T00:16:36;6.80;99.60
814;DHT22;389;48.710;9.392;2023-03-13T00:19:04;6.80;99.70
814;DHT22;389;48.710;9.392;2023-03-13T00:21:30;6.80;99.70
814;DHT22;389;48.710;9.392;2023-03-13T00:23:57;6.90;99.80
814;DHT22;389;48.710;9.392;2023-03-13T00:26:25;6.90;99.80
814;DHT22;389;48.710;9.392;2023-03-13T00:28:51;6.80;99.80
814;DHT22;389;48.710;9.392;2023-03-13T00:31:23;6.90;99.90
814;DHT22;389;48.710;9.392;2023-03-13T00:33:51;6.90;99.90
814;DHT22;389;48.710;9.392;2023-03-13T00:36:23;6.90;99.90
814;DHT22;389;48.710;9.392;2023-03-13T00:38:50;6.90;99.90
814;DHT22;389;48.710;9.392;2023-03-13T00:41:18;7.00;99.90
814;DHT22;389;48.710;9.392;2023-03-13T00:43:45;7.00;99.90
814;DHT22;389;48.710;9.392;2023-03-13T00:46:12;7.00;99.90
814;DHT22;389;48.710;9.392;2023-03-13T00:48:39;7.10;99.90
814;DHT22;389;48.710;9.392;2023-03-13T00:51:08;7.10;99.90
814;DHT22;389;48.710;9.392;2023-03-13T00:53:34;7.10;99.90
814;DHT22;389;48.710;9.392;2023-03-13T00:56:07;7.20;99.90
814;DHT22;389;48.710;9.392;2023-03-13T00:58:36;7.20;99.90
814;DHT22;389;48.710;9.392;2023-03-13T01:01:14;7.30;99.90
814;DHT22;389;48.710;9.392;2023-03-13T01:03:43;7.30;99.90
814;DHT22;389;48.710;9.392;2023-03-13T01:06:12;7.30;99.90
814;DHT22;389;48.710;9.392;2023-03-13T01:08:37;7.30;99.90
814;DHT22;389;48.710;9.392;2023-03-13T01:11:07;7.30;99.90
814;DHT22;389;48.710;9.392;2023-03-13T01:13:33;7.40;99.90
814;DHT22;389;48.710;9.392;2023-03-13T01:16:12;7.50;99.90
814;DHT22;389;48.710;9.392;2023-03-13T01:18:39;7.40;99.90
814;DHT22;389;48.710;9.392;2023-03-13T01:21:06;7.40;99.90
814;DHT22;389;48.710;9.392;2023-03-13T01:23:31;7.50;99.90
814;DHT22;389;48.710;9.392;2023-03-13T01:25:57;7.50;99.90
814;DHT22;389;48.710;9.392;2023-03-13T01:28:24;7.50;99.90
814;DHT22;389;48.710;9.392;2023-03-13T01:30:50;7.50;99.90
814;DHT22;389;48.710;9.392;2023-03-13T01:33:16;7.50;99.90
814;DHT22;389;48.710;9.392;2023-03-13T01:35:42;7.50;99.90
814;DHT22;389;48.710;9.392;2023-03-13T01:38:08;7.50;99.90
814;DHT22;389;48.710;9.392;2023-03-13T01:40:41;7.50;99.90
814;DHT22;389;48.710;9.392;2023-03-13T01:43:21;7.50;99.90
814;DHT22;389;48.710;9.392;2023-03-13T01:51:18;7.60;99.90
814;DHT22;389;48.710;9.392;2023-03-13T01:53:47;7.60;99.90
814;DHT22;389;48.710;9.392;2023-03-13T01:56:19;7.60;99.90
814;DHT22;389;48.710;9.392;2023-03-13T01:58:48;7.60;99.90
814;DHT22;389;48.710;9.392;2023-03-13T02:01:15;7.60;99.90
814;DHT22;389;48.710;9.392;2023-03-13T02:03:41;7.60;99.90
814;DHT22;389;48.710;9.392;2023-03-13T02:06:08;7.60;99.90
814;DHT22;389;48.710;9.392;2023-03-13T02:08:42;7.70;99.90
814;DHT22;389;48.710;9.392;2023-03-13T02:13:51;7.70;99.90
814;DHT22;389;48.710;9.392;2023-03-13T02:16:18;7.70;99.90
814;DHT22;389;48.710;9.392;2023-03-13T02:18:45;7.70;99.90
814;DHT22;389;48.710;9.392;2023-03-13T02:21:40;7.60;99.90
814;DHT22;389;48.710;9.392;2023-03-13T02:24:09;7.70;99.90
814;DHT22;389;48.710;9.392;2023-03-13T02:26:38;7.70;99.90
814;DHT22;389;48.710;9.392;2023-03-13T02:29:03;7.80;99.90
814;DHT22;389;48.710;9.392;2023-03-13T02:31:29;7.80;99.90
814;DHT22;389;48.710;9.392;2023-03-13T02:33:58;7.80;99.90
814;DHT22;389;48.710;9.392;2023-03-13T02:36:26;7.90;99.90
814;DHT22;389;48.710;9.392;2023-03-13T02:38:56;7.90;99.90
814;DHT22;389;48.710;9.392;2023-03-13T02:41:24;7.90;99.90
814;DHT22;389;48.710;9.392;2023-03-13T02:43:51;8.00;99.90
814;DHT22;389;48.710;9.392;2023-03-13T02:46:19;8.00;99.90
814;DHT22;389;48.710;9.392;2023-03-13T02:48:50;8.00;99.90
814;DHT22;389;48.710;9.392;2023-03-13T02:51:29;7.90;99.90
814;DHT22;389;48.710;9.392;2023-03-13T02:53:59;8.10;99.90
814;DHT22;389;48.710;9.392;2023-03-13T02:56:27;8.00;99.90
814;DHT22;389;48.710;9.392;2023-03-13T02:58:54;8.10;99.90
814;DHT22;389;48.710;9.392;2023-03-13T03:01:20;8.10;99.90
814;DHT22;389;48.710;9.392;2023-03-13T03:03:45;8.10;99.90
814;DHT22;389;48.710;9.392;2023-03-13T03:06:11;8.20;99.90
814;DHT22;389;48.710;9.392;2023-03-13T03:08:40;8.20;99.80
814;DHT22;389;48.710;9.392;2023-03-13T03:11:08;8.20;99.50
814;DHT22;389;48.710;9.392;2023-03-13T03:13:34;8.20;99.50
814;DHT22;389;48.710;9.392;2023-03-13T03:16:08;8.20;99.50
814;DHT22;389;48.710;9.392;2023-03-13T03:18:35;8.30;99.80
814;DHT22;389;48.710;9.392;2023-03-13T03:21:01;8.30;99.20
814;DHT22;389;48.710;9.392;2023-03-13T03:23:29;8.30;99.10
814;DHT22;389;48.710;9.392;2023-03-13T03:25:54;8.30;99.10
814;DHT22;389;48.710;9.392;2023-03-13T03:28:20;8.40;99.10
814;DHT22;389;48.710;9.392;2023-03-13T03:30:45;8.40;99.00
814;DHT22;389;48.710;9.392;2023-03-13T03:33:11;8.40;99.00
814;DHT22;389;48.710;9.392;2023-03-13T03:35:37;8.40;99.00
814;DHT22;389;48.710;9.392;2023-03-13T03:38:05;8.40;99.00
814;DHT22;389;48.710;9.392;2023-03-13T03:40:30;8.40;99.00
814;DHT22;389;48.710;9.392;2023-03-13T03:42:56;8.50;99.00
814;DHT22;389;48.710;9.392;2023-03-13T03:45:22;8.50;99.00
814;DHT22;389;48.710;9.392;2023-03-13T03:47:47;8.50;99.10
814;DHT22;389;48.710;9.392;2023-03-13T03:50:13;8.50;99.10
814;DHT22;389;48.710;9.392;2023-03-13T03:52:38;8.60;99.20
814;DHT22;389;48.710;9.392;2023-03-13T03:55:04;8.60;99.20
814;DHT22;389;48.710;9.392;2023-03-13T03:57:30;8.60;99.20
814;DHT22;389;48.710;9.392;2023-03-13T03:59:55;8.60;99.30
814;DHT22;389;48.710;9.392;2023-03-13T04:02:21;8.60;99.40
814;DHT22;389;48.710;9.392;2023-03-13T04:04:46;8.70;99.50
814;DHT22;389;48.710;9.392;2023-03-13T04:07:12;8.60;99.50
814;DHT22;389;48.710;9.392;2023-03-13T04:09:38;8.60;99.70
814;DHT22;389;48.710;9.392;2023-03-13T04:12:03;8.70;99.70
814;DHT22;389;48.710;9.392;2023-03-13T04:14:29;8.70;99.90
814;DHT22;389;48.710;9.392;2023-03-13T04:16:55;8.70;99.90
814;DHT22;389;48.710;9.392;2023-03-13T04:19:21;8.70;99.90
814;DHT22;389;48.710;9.392;2023-03-13T04:21:46;8.70;99.90
814;DHT22;389;48.710;9.392;2023-03-13T04:24:12;8.70;99.90
814;DHT22;389;48.710;9.392;2023-03-13T04:26:37;8.80;99.90
814;DHT22;389;48.710;9.392;2023-03-13T04:29:03;8.80;99.90
814;DHT22;389;48.710;9.392;2023-03-13T04:31:31;8.80;99.90
814;DHT22;389;48.710;9.392;2023-03-13T04:33:56;8.80;99.90
814;DHT22;389;48.710;9.392;2023-03-13T04:36:22;8.80;99.90
814;DHT22;389;48.710;9.392;2023-03-13T04:38:47;9.00;99.90
814;DHT22;389;48.710;9.392;2023-03-13T04:41:13;8.90;99.90
814;DHT22;389;48.710;9.392;2023-03-13T04:43:38;9.00;99.90
814;DHT22;389;48.710;9.392;2023-03-13T04:46:04;9.10;99.90
814;DHT22;389;48.710;9.392;2023-03-13T04:48:30;9.10;99.90
814;DHT22;389;48.710;9.392;2023-03-13T04:50:55;9.10;99.90
814;DHT22;389;48.710;9.392;2023-03-13T04:53:21;9.20;99.90
814;DHT22;389;48.710;9.392;2023-03-13T04:55:48;9.20;99.90
814;DHT22;389;48.710;9.392;2023-03-13T04:58:14;9.30;99.90
814;DHT22;389;48.710;9.392;2023-03-13T05:00:40;9.30;99.90
814;DHT22;389;48.710;9.392;2023-03-13T05:03:05;9.40;99.90
814;DHT22;389;48.710;9.392;2023-03-13T05:05:33;9.40;99.90
814;DHT22;389;48.710;9.392;2023-03-13T05:07:59;9.40;99.90
814;DHT22;389;48.710;9.392;2023-03-13T05:10:25;9.60;99.90
814;DHT22;389;48.710;9.392;2023-03-13T05:12:51;9.40;99.90
814;DHT22;389;48.710;9.392;2023-03-13T05:15:17;9.50;99.90
814;DHT22;389;48.710;9.392;2023-03-13T05:17:42;9.50;99.90
814;DHT22;389;48.710;9.392;2023-03-13T05:20:09;9.50;99.90
814;DHT22;389;48.710;9.392;2023-03-13T05:22:36;9.60;99.90
814;DHT22;389;48.710;9.392;2023-03-13T05:25:02;9.70;99.90
814;DHT22;389;48.710;9.392;2023-03-13T05:27:28;9.80;99.90
814;DHT22;389;48.710;9.392;2023-03-13T05:29:53;9.90;99.90
814;DHT22;389;48.710;9.392;2023-03-13T05:32:19;10.00;99.90
814;DHT22;389;48.710;9.392;2023-03-13T05:34:45;10.10;99.90
814;DHT22;389;48.710;9.392;2023-03-13T05:37:10;10.30;99.90
814;DHT22;389;48.710;9.392;2023-03-13T05:39:36;10.40;99.90
814;DHT22;389;48.710;9.392;2023-03-13T05:42:01;10.50;99.90
814;DHT22;389;48.710;9.392;2023-03-13T05:44:27;10.60;99.90
814;DHT22;389;48.710;9.392;2023-03-13T05:46:53;10.70;99.90
814;DHT22;389;48.710;9.392;2023-03-13T05:49:18;10.80;99.90
814;DHT22;389;48.710;9.392;2023-03-13T05:51:44;11.00;99.90
814;DHT22;389;48.710;9.392;2023-03-13T05:54:09;11.10;99.90
814;DHT22;389;48.710;9.392;2023-03-13T05:56:35;11.10;99.70
814;DHT22;389;48.710;9.392;2023-03-13T05:59:00;11.20;99.60
814;DHT22;389;48.710;9.392;2023-03-13T06:01:26;11.20;99.40
814;DHT22;389;48.710;9.392;2023-03-13T06:03:51;11.30;99.40
814;DHT22;389;48.710;9.392;2023-03-13T06:06:17;11.30;99.20
814;DHT22;389;48.710;9.392;2023-03-13T06:08:43;11.40;99.20
814;DHT22;389;48.710;9.392;2023-03-13T06:11:08;11.40;99.00
814;DHT22;389;48.710;9.392;2023-03-13T06:13:34;11.50;99.00
814;DHT22;389;48.710;9.392;2023-03-13T06:15:59;11.50;98.90
814;DHT22;389;48.710;9.392;2023-03-13T06:18:26;11.50;98.60
814;DHT22;389;48.710;9.392;2023-03-13T06:20:59;11.60;98.50
814;DHT22;389;48.710;9.392;2023-03-13T06:23:26;11.70;98.80
814;DHT22;389;48.710;9.392;2023-03-13T06:25:51;11.80;98.50
814;DHT22;389;48.710;9.392;2023-03-13T06:28:17;11.90;98.10
814;DHT22;389;48.710;9.392;2023-03-13T06:30:43;12.00;98.00
814;DHT22;389;48.710;9.392;2023-03-13T06:33:08;12.00;98.00
814;DHT22;389;48.710;9.392;2023-03-13T06:35:38;12.10;97.60
814;DHT22;389;48.710;9.392;2023-03-13T06:38:03;12.20;97.40
814;DHT22;389;48.710;9.392;2023-03-13T06:40:29;12.30;97.50
814;DHT22;389;48.710;9.392;2023-03-13T06:42:54;12.40;97.10
814;DHT22;389;48.710;9.392;2023-03-13T06:45:20;12.50;96.90
814;DHT22;389;48.710;9.392;2023-03-13T06:47:45;12.60;96.80
814;DHT22;389;48.710;9.392;2023-03-13T06:50:11;12.70;96.60
814;DHT22;389;48.710;9.392;2023-03-13T06:52:37;12.90;96.60
814;DHT22;389;48.710;9.392;2023-03-13T06:55:03;13.00;96.50
814;DHT22;389;48.710;9.392;2023-03-13T06:57:29;13.10;96.40
814;DHT22;389;48.710;9.392;2023-03-13T06:59:54;13.20;96.30
814;DHT22;389;48.710;9.392;2023-03-13T07:02:20;13.30;96.20
814;DHT22;389;48.710;9.392;2023-03-13T07:04:45;13.60;96.20
814;DHT22;389;48.710;9.392;2023-03-13T07:07:11;13.60;96.10
814;DHT22;389;48.710;9.392;2023-03-13T07:09:37;13.70;95.90
814;DHT22;389;48.710;9.392;2023-03-13T07:12:02;14.00;96.10
814;DHT22;389;48.710;9.392;2023-03-13T07:14:29;14.00;95.80
814;DHT22;389;48.710;9.392;2023-03-13T07:16:57;14.20;95.70
814;DHT22;389;48.710;9.392;2023-03-13T07:19:23;14.20;95.60
814;DHT22;389;48.710;9.392;2023-03-13T07:21:49;14.20;95.60
814;DHT22;389;48.710;9.392;2023-03-13T07:24:16;14.30;95.40
814;DHT22;389;48.710;9.392;2023-03-13T07:26:42;14.50;95.50
814;DHT22;389;48.710;9.392;2023-03-13T07:29:07;14.40;95.40
814;DHT22;389;48.710;9.392;2023-03-13T07:31:33;14.50;95.50
814;DHT22;389;48.710;9.392;2023-03-13T07:33:59;14.60;95.50
814;DHT22;389;48.710;9.392;2023-03-13T07:36:25;14.60;95.40
814;DHT22;389;48.710;9.392;2023-03-13T07:38:51;14.60;95.50
814;DHT22;389;48.710;9.392;2023-03-13T07:41:18;14.60;95.50
814;DHT22;389;48.710;9.392;2023-03-13T07:43:44;14.70;95.50
814;DHT22;389;48.710;9.392;2023-03-13T07:46:12;14.70;95.50
814;DHT22;389;48.710;9.392;2023-03-13T07:48:40;14.80;95.50
814;DHT22;389;48.710;9.392;2023-03-13T07:51:09;14.90;95.30
814;DHT22;389;48.710;9.392;2023-03-13T07:53:35;14.90;95.30
814;DHT22;389;48.710;9.392;2023-03-13T07:56:04;15.00;95.20
814;DHT22;389;48.710;9.392;2023-03-13T07:58:32;15.00;95.30
814;DHT22;389;48.710;9.392;2023-03-13T08:00:58;15.10;95.40
814;DHT22;389;48.710;9.392;2023-03-13T08:03:24;15.10;95.30
814;DHT22;389;48.710;9.392;2023-03-13T08:06:01;15.20;95.40
814;DHT22;389;48.710;9.392;2023-03-13T08:08:27;15.20;95.30
814;DHT22;389;48.710;9.392;2023-03-13T08:11:19;15.20;95.20
814;DHT22;389;48.710;9.392;2023-03-13T08:13:44;15.20;95.20
814;DHT22;389;48.710;9.392;2023-03-13T08:16:13;15.30;95.30
814;DHT22;389;48.710;9.392;2023-03-13T08:18:44;15.40;95.30
814;DHT22;389;48.710;9.392;2023-03-13T08:21:16;15.40;95.30
814;DHT22;389;48.710;9.392;2023-03-13T08:23:42;15.40;95.30
814;DHT22;389;48.710;9.392;2023-03-13T08:26:11;15.50;95.10
814;DHT22;389;48.710;9.392;2023-03-13T08:28:38;15.50;94.90
814;DHT22;389;48.710;9.392;2023-03-13T08:31:12;15.70;95.00
814;DHT22;389;48.710;9.392;2023-03-13T08:33:40;15.70;94.90
814;DHT22;389;48.710;9.392;2023-03-13T08:36:15;15.90;94.80
814;DHT22;389;48.710;9.392;2023-03-13T08:38:45;15.90;94.60
814;DHT22;389;48.710;9.392;2023-03-13T08:41:16;16.20;94.50
814;DHT22;389;48.710;9.392;2023-03-13T08:43:42;16.20;94.30
814;DHT22;389;48.710;9.392;2023-03-13T08:46:08;16.40;94.20
814;DHT22;389;48.710;9.392;2023-03-13T08:48:34;16.70;93.90
814;DHT22;389;48.710;9.392;2023-03-13T08:51:09;16.80;93.70
814;DHT22;389;48.710;9.392;2023-03-13T08:53:37;17.00;93.40
814;DHT22;389;48.710;9.392;2023-03-13T08:56:03;17.10;93.10
814;DHT22;389;48.710;9.392;2023-03-13T08:58:29;17.20;92.90
814;DHT22;389;48.710;9.392;2023-03-13T09:01:00;17.30;92.80
814;DHT22;389;48.710;9.392;2023-03-13T09:03:26;17.40;92.80
814;DHT22;389;48.710;9.392;2023-03-13T09:05:52;17.40;92.60
814;DHT22;389;48.710;9.392;2023-03-13T09:08:17;17.50;92.60
814;DHT22;389;48.710;9.392;2023-03-13T09:10:43;17.60;92.60
814;DHT22;389;48.710;9.392;2023-03-13T09:13:09;17.80;92.50
814;DHT22;389;48.710;9.392;2023-03-13T09:15:34;17.80;92.10
814;DHT22;389;48.710;9.392;2023-03-13T09:18:00;17.70;92.00
814;DHT22;389;48.710;9.392;2023-03-13T09:20:25;17.80;91.90
814;DHT22;389;48.710;9.392;2023-03-13T09:22:51;17.90;92.30
814;DHT22;389;48.710;9.392;2023-03-13T09:25:16;18.00;91.70
814;DHT22;389;48.710;9.392;2023-03-13T09:27:42;18.00;91.30
814;DHT22;389;48.710;9.392;2023-03-13T09:30:09;18.10;91.40
814;DHT22;389;48.710;9.392;2023-03-13T09:32:35;18.00;90.90
814;DHT22;389;48.710;9.392;2023-03-13T09:35:00;18.00;91.30
814;DHT22;389;48.710;9.392;2023-03-13T09:37:26;18.10;91.20
814;DHT22;389;48.710;9.392;2023-03-13T09:39:51;18.00;91.30
814;DHT22;389;48.710;9.392;2023-03-13T09:42:27;18.10;91.00
814;DHT22;389;48.710;9.392;2023-03-13T09:45:11;18.10;90.70
814;DHT22;389;48.710;9.392;2023-03-13T09:47:43;18.20;90.90
814;DHT22;389;48.710;9.392;2023-03-13T09:50:11;18.40;90.80
814;DHT22;389;48.710;9.392;2023-03-13T09:52:39;18.40;90.60
814;DHT22;389;48.710;9.392;2023-03-13T09:57:48;18.50;90.40
814;DHT22;389;48.710;9.392;2023-03-13T10:00:21;18.50;90.10
814;DHT22;389;48.710;9.392;2023-03-13T10:03:14;18.50;90.10
814;DHT22;389;48.710;9.392;2023-03-13T10:06:00;18.50;90.10
814;DHT22;389;48.710;9.392;2023-03-13T10:08:30;18.60;90.30
814;DHT22;389;48.710;9.392;2023-03-13T10:11:16;18.70;90.70
814;DHT22;389;48.710;9.392;2023-03-13T10:13:59;18.80;89.20
814;DHT22;389;48.710;9.392;2023-03-13T10:16:37;18.90;89.20
814;DHT22;389;48.710;9.392;2023-03-13T10:19:24;19.00;89.20
814;DHT22;389;48.710;9.392;2023-03-13T10:21:52;19.20;89.00
814;DHT22;389;48.710;9.392;2023-03-13T10:24:33;19.40;88.10
814;DHT22;389;48.710;9.392;2023-03-13T10:27:00;19.70;87.80
814;DHT22;389;48.710;9.392;2023-03-13T10:29:28;19.70;87.50
814;DHT22;389;48.710;9.392;2023-03-13T10:32:00;19.80;87.20
814;DHT22;389;48.710;9.392;2023-03-13T10:34:30;19.90;86.60
814;DHT22;389;48.710;9.392;2023-03-13T10:37:13;19.90;86.60
814;DHT22;389;48.710;9.392;2023-03-13T10:39:38;19.90;86.00
814;DHT22;389;48.710;9.392;2023-03-13T10:42:30;20.20;85.90
814;DHT22;389;48.710;9.392;2023-03-13T10:44:57;20.20;84.80
814;DHT22;389;48.710;9.392;2023-03-13T10:47:23;20.20;83.30
814;DHT22;389;48.710;9.392;2023-03-13T10:49:51;20.30;83.10
814;DHT22;389;48.710;9.392;2023-03-13T10:52:40;20.20;82.60
814;DHT22;389;48.710;9.392;2023-03-13T10:55:10;20.30;82.20
814;DHT22;389;48.710;9.392;2023-03-13T10:57:37;20.20;82.40
814;DHT22;389;48.710;9.392;2023-03-13T11:02:48;20.40;82.40
814;DHT22;389;48.710;9.392;2023-03-13T11:05:32;20.50;82.50
814;DHT22;389;48.710;9.392;2023-03-13T11:08:20;20.60;81.40
814;DHT22;389;48.710;9.392;2023-03-13T11:10:56;20.70;81.60
814;DHT22;389;48.710;9.392;2023-03-13T11:13:42;20.80;81.00
814;DHT22;389;48.710;9.392;2023-03-13T11:18:48;20.60;80.50
814;DHT22;389;48.710;9.392;2023-03-13T11:21:23;20.60;81.00
814;DHT22;389;48.710;9.392;2023-03-13T11:23:58;20.60;80.50
814;DHT22;389;48.710;9.392;2023-03-13T11:26:35;20.60;80.20
814;DHT22;389;48.710;9.392;2023-03-13T11:32:02;20.90;80.10
814;DHT22;389;48.710;9.392;2023-03-13T11:34:58;20.90;79.50
814;DHT22;389;48.710;9.392;2023-03-13T11:37:27;20.90;79.40
814;DHT22;389;48.710;9.392;2023-03-13T11:40:10;20.90;79.70
814;DHT22;389;48.710;9.392;2023-03-13T11:42:59;21.00;79.80
814;DHT22;389;48.710;9.392;2023-03-13T11:48:11;21.00;80.20
814;DHT22;389;48.710;9.392;2023-03-13T11:51:25;21.00;79.40
814;DHT22;389;48.710;9.392;2023-03-13T11:59:39;20.90;80.00
814;DHT22;389;48.710;9.392;2023-03-13T12:01:44;20.80;79.50
814;DHT22;389;48.710;9.392;2023-03-13T12:04:26;20.70;80.10
814;DHT22;389;48.710;9.392;2023-03-13T12:09:32;20.60;80.20
814;DHT22;389;48.710;9.392;2023-03-13T12:12:14;20.60;80.30
814;DHT22;389;48.710;9.392;2023-03-13T12:15:13;20.60;80.30
814;DHT22;389;48.710;9.392;2023-03-13T12:20:25;20.50;80.30
814;DHT22;389;48.710;9.392;2023-03-13T12:23:13;20.60;80.70
814;DHT22;389;48.710;9.392;2023-03-13T12:28:46;20.70;80.90
814;DHT22;389;48.710;9.392;2023-03-13T12:31:31;20.80;81.40
814;DHT22;389;48.710;9.392;2023-03-13T12:36:56;20.90;80.50
814;DHT22;389;48.710;9.392;2023-03-13T12:39:42;21.10;79.70
814;DHT22;389;48.710;9.392;2023-03-13T12:44:51;21.70;79.30
814;DHT22;389;48.710;9.392;2023-03-13T12:47:32;22.00;79.50
814;DHT22;389;48.710;9.392;2023-03-13T12:50:49;22.20;78.50
814;DHT22;389;48.710;9.392;2023-03-13T13:01:06;22.40;75.80
814;DHT22;389;48.710;9.392;2023-03-13T13:04:11;22.40;76.30
814;DHT22;389;48.710;9.392;2023-03-13T13:07:06;22.50;76.70
814;DHT22;389;48.710;9.392;2023-03-13T13:12:29;22.50;76.10
814;DHT22;389;48.710;9.392;2023-03-13T13:15:10;22.50;75.50
814;DHT22;389;48.710;9.392;2023-03-13T13:18:04;22.60;75.50
814;DHT22;389;48.710;9.392;2023-03-13T13:23:44;22.80;75.40
814;DHT22;389;48.710;9.392;2023-03-13T13:28:59;23.10;72.60
814;DHT22;389;48.710;9.392;2023-03-13T13:36:57;23.80;71.20
814;DHT22;389;48.710;9.392;2023-03-13T13:39:40;24.00;70.90
814;DHT22;389;48.710;9.392;2023-03-13T13:45:26;24.30;70.10
814;DHT22;389;48.710;9.392;2023-03-13T13:48:27;24.50;68.70
814;DHT22;389;48.710;9.392;2023-03-13T13:53:57;24.60;68.80
814;DHT22;389;48.710;9.392;2023-03-13T13:56:36;24.60;65.80
814;DHT22;389;48.710;9.392;2023-03-13T13:59:35;24.60;65.40
814;DHT22;389;48.710;9.392;2023-03-13T14:05:00;24.60;65.30
814;DHT22;389;48.710;9.392;2023-03-13T14:07:41;24.60;64.70
814;DHT22;389;48.710;9.392;2023-03-13T14:13:16;24.60;64.40
814;DHT22;389;48.710;9.392;2023-03-13T14:15:45;24.60;64.70
814;DHT22;389;48.710;9.392;2023-03-13T14:18:30;24.60;65.00
814;DHT22;389;48.710;9.392;2023-03-13T14:21:20;24.60;64.10
814;DHT22;389;48.710;9.392;2023-03-13T14:23:46;24.60;65.10
814;DHT22;389;48.710;9.392;2023-03-13T14:26:21;24.50;64.80
814;DHT22;389;48.710;9.392;2023-03-13T14:28:53;24.40;64.80
814;DHT22;389;48.710;9.392;2023-03-13T14:31:30;24.40;65.40
814;DHT22;389;48.710;9.392;2023-03-13T14:34:01;24.40;65.50
814;DHT22;389;48.710;9.392;2023-03-13T14:36:26;24.40;64.80
814;DHT22;389;48.710;9.392;2023-03-13T14:38:53;24.30;64.60
814;DHT22;389;48.710;9.392;2023-03-13T14:41:29;24.30;65.20
814;DHT22;389;48.710;9.392;2023-03-13T14:44:01;24.40;65.40
814;DHT22;389;48.710;9.392;2023-03-13T14:46:35;24.40;64.60
814;DHT22;389;48.710;9.392;2023-03-13T14:51:38;24.20;64.20
814;DHT22;389;48.710;9.392;2023-03-13T14:54:04;24.10;64.40
814;DHT22;389;48.710;9.392;2023-03-13T14:56:38;24.00;64.40
814;DHT22;389;48.710;9.392;2023-03-13T14:59:17;23.90;65.00
814;DHT22;389;48.710;9.392;2023-03-13T15:01:44;23.80;65.20
814;DHT22;389;48.710;9.392;2023-03-13T15:04:10;23.80;64.50
814;DHT22;389;48.710;9.392;2023-03-13T15:06:36;23.70;64.90
814;DHT22;389;48.710;9.392;2023-03-13T15:09:17;23.70;64.90
814;DHT22;389;48.710;9.392;2023-03-13T15:11:59;23.70;65.00
814;DHT22;389;48.710;9.392;2023-03-13T15:14:52;23.80;64.90
814;DHT22;389;48.710;9.392;2023-03-13T15:17:19;23.90;65.60
814;DHT22;389;48.710;9.392;2023-03-13T15:19:56;23.90;65.10
814;DHT22;389;48.710;9.392;2023-03-13T15:22:28;24.00;65.50
814;DHT22;389;48.710;9.392;2023-03-13T15:24:55;24.00;64.10
814;DHT22;389;48.710;9.392;2023-03-13T15:27:23;24.00;64.80
814;DHT22;389;48.710;9.392;2023-03-13T15:29:48;24.00;64.80
814;DHT22;389;48.710;9.392;2023-03-13T15:32:21;23.90;65.00
814;DHT22;389;48.710;9.392;2023-03-13T15:34:48;23.80;65.60
814;DHT22;389;48.710;9.392;2023-03-13T15:37:14;23.80;65.30
814;DHT22;389;48.710;9.392;2023-03-13T15:39:40;23.70;65.40
814;DHT22;389;48.710;9.392;2023-03-13T15:42:06;23.70;65.50
814;DHT22;389;48.710;9.392;2023-03-13T15:44:32;23.70;65.80
814;DHT22;389;48.710;9.392;2023-03-13T15:46:57;23.70;66.30
814;DHT22;389;48.710;9.392;2023-03-13T15:49:23;23.70;66.90
814;DHT22;389;48.710;9.392;2023-03-13T15:51:49;23.70;67.30
814;DHT22;389;48.710;9.392;2023-03-13T15:54:15;23.60;67.70
814;DHT22;389;48.710;9.392;2023-03-13T15:56:40;23.60;68.60
814;DHT22;389;48.710;9.392;2023-03-13T15:59:11;23.50;69.10
814;DHT22;389;48.710;9.392;2023-03-13T16:01:37;23.50;69.40
814;DHT22;389;48.710;9.392;2023-03-13T16:04:03;23.50;69.70
814;DHT22;389;48.710;9.392;2023-03-13T16:06:29;23.30;69.60
814;DHT22;389;48.710;9.392;2023-03-13T16:08:58;23.30;69.60
814;DHT22;389;48.710;9.392;2023-03-13T16:11:25;23.10;69.40
814;DHT22;389;48.710;9.392;2023-03-13T16:13:51;23.00;69.70
814;DHT22;389;48.710;9.392;2023-03-13T16:16:29;22.90;70.00
814;DHT22;389;48.710;9.392;2023-03-13T16:18:56;22.80;70.30
814;DHT22;389;48.710;9.392;2023-03-13T16:21:25;22.70;70.30
814;DHT22;389;48.710;9.392;2023-03-13T16:23:52;22.50;70.50
814;DHT22;389;48.710;9.392;2023-03-13T16:26:20;22.50;70.50
814;DHT22;389;48.710;9.392;2023-03-13T16:28:47;22.40;70.60
814;DHT22;389;48.710;9.392;2023-03-13T16:31:24;22.40;70.70
814;DHT22;389;48.710;9.392;2023-03-13T16:33:52;22.30;70.70
814;DHT22;389;48.710;9.392;2023-03-13T16:36:26;22.20;71.00
814;DHT22;389;48.710;9.392;2023-03-13T16:38:54;22.10;71.20
814;DHT22;389;48.710;9.392;2023-03-13T16:41:22;21.90;71.60
814;DHT22;389;48.710;9.392;2023-03-13T16:43:48;21.80;72.00
814;DHT22;389;48.710;9.392;2023-03-13T16:46:18;21.60;72.20
814;DHT22;389;48.710;9.392;2023-03-13T16:48:45;21.50;72.60
814;DHT22;389;48.710;9.392;2023-03-13T16:51:31;21.30;72.80
814;DHT22;389;48.710;9.392;2023-03-13T16:53:59;21.10;73.40
814;DHT22;389;48.710;9.392;2023-03-13T16:58:51;20.80;74.40
814;DHT22;389;48.710;9.392;2023-03-13T17:01:17;20.60;75.00
814;DHT22;389;48.710;9.392;2023-03-13T17:03:43;20.40;75.40
814;DHT22;389;48.710;9.392;2023-03-13T17:06:18;20.20;76.10
814;DHT22;389;48.710;9.392;2023-03-13T17:08:44;20.10;78.00
814;DHT22;389;48.710;9.392;2023-03-13T17:11:12;19.90;78.30
814;DHT22;389;48.710;9.392;2023-03-13T17:13:40;19.70;78.80
814;DHT22;389;48.710;9.392;2023-03-13T17:16:14;19.50;79.10
814;DHT22;389;48.710;9.392;2023-03-13T17:18:41;19.30;79.70
814;DHT22;389;48.710;9.392;2023-03-13T17:21:16;19.20;81.20
814;DHT22;389;48.710;9.392;2023-03-13T17:23:43;19.00;81.30
814;DHT22;389;48.710;9.392;2023-03-13T17:26:36;18.80;82.20
814;DHT22;389;48.710;9.392;2023-03-13T17:29:02;18.60;83.10
814;DHT22;389;48.710;9.392;2023-03-13T17:31:29;18.50;83.50
814;DHT22;389;48.710;9.392;2023-03-13T17:33:55;18.30;83.80
814;DHT22;389;48.710;9.392;2023-03-13T17:36:26;18.20;84.70
814;DHT22;389;48.710;9.392;2023-03-13T17:38:57;18.00;85.20
814;DHT22;389;48.710;9.392;2023-03-13T17:41:28;18.00;85.40
814;DHT22;389;48.710;9.392;2023-03-13T17:43:54;17.80;85.60
814;DHT22;389;48.710;9.392;2023-03-13T17:46:36;17.80;85.90
814;DHT22;389;48.710;9.392;2023-03-13T17:49:03;17.70;86.30
814;DHT22;389;48.710;9.392;2023-03-13T17:51:31;17.70;86.60
814;DHT22;389;48.710;9.392;2023-03-13T17:53:58;17.60;86.60
814;DHT22;389;48.710;9.392;2023-03-13T17:56:29;17.50;86.40
814;DHT22;389;48.710;9.392;2023-03-13T17:58:57;17.50;86.30
814;DHT22;389;48.710;9.392;2023-03-13T18:01:28;17.40;86.10
814;DHT22;389;48.710;9.392;2023-03-13T18:03:57;17.40;85.80
814;DHT22;389;48.710;9.392;2023-03-13T18:06:29;17.50;85.90
814;DHT22;389;48.710;9.392;2023-03-13T18:08:57;17.40;85.60
814;DHT22;389;48.710;9.392;2023-03-13T18:11:26;17.50;85.70
814;DHT22;389;48.710;9.392;2023-03-13T18:13:52;17.50;85.40
814;DHT22;389;48.710;9.392;2023-03-13T18:16:26;17.50;85.10
814;DHT22;389;48.710;9.392;2023-03-13T18:18:55;17.60;84.80